Time;durP1;ratioP1;P1;durP2;ratioP2;P2;SDS_P1;SDS_P2;PMS_P1;PMS_P2;Temp;Humidity;BMP_temperature;BMP_pressure;BME280_temperature;BME280_humidity;BME280_pressure;Samples;Min_cycle;Max_cycle;Signal;HPM_P1;HPM_P2
2023/06/16 00:01:35;;;;;;;5.47;2.90;;;16.30;99.90;;;;;;5054525;28;20206;-67
2023/06/16 00:04:03;;;;;;;3.20;2.57;;;16.40;99.90;;;;;;5054709;28;20179;-67
2023/06/16 00:06:29;;;;;;;4.10;2.90;;;16.30;99.90;;;;;;5054793;28;20401;-68
2023/06/16 00:08:57;;;;;;;3.07;2.77;;;16.30;99.90;;;;;;5054895;28;20916;-67
2023/06/16 00:11:24;;;;;;;3.03;2.83;;;16.30;99.90;;;;;;5054334;28;20812;-67
2023/06/16 00:13:50;;;;;;;3.37;3.07;;;16.20;99.90;;;;;;5054529;28;20437;-68
2023/06/16 00:16:19;;;;;;;6.97;3.13;;;16.20;99.90;;;;;;5054647;28;20451;-68
2023/06/16 00:18:51;;;;;;;3.27;2.97;;;16.20;99.90;;;;;;5054505;28;20394;-68
2023/06/16 00:21:29;;;;;;;3.90;2.80;;;16.10;99.90;;;;;;5054248;28;20936;-67
2023/06/16 00:23:56;;;;;;;4.10;3.70;;;16.20;99.90;;;;;;5054311;28;20397;-67
2023/06/16 00:26:23;;;;;;;5.10;3.60;;;16.10;99.90;;;;;;5054407;28;20444;-67
2023/06/16 00:28:48;;;;;;;3.13;2.83;;;16.10;99.90;;;;;;5054288;28;20416;-68
2023/06/16 00:31:15;;;;;;;3.97;3.67;;;16.10;99.90;;;;;;5054036;28;20425;-68
2023/06/16 00:33:40;;;;;;;4.97;2.97;;;16.10;99.90;;;;;;5054179;28;20249;-67
2023/06/16 00:36:06;;;;;;;3.60;3.03;;;16.10;99.90;;;;;;5054162;28;20500;-68
2023/06/16 00:38:31;;;;;;;5.37;4.10;;;16.00;99.90;;;;;;5036060;28;20600;-67
2023/06/16 00:40:57;;;;;;;4.73;3.20;;;16.00;99.90;;;;;;5053779;28;20684;-68
2023/06/16 00:43:22;;;;;;;3.87;3.53;;;16.00;99.90;;;;;;5054219;28;20163;-68
2023/06/16 00:45:49;;;;;;;3.20;2.90;;;16.00;99.90;;;;;;5053953;28;20639;-68
2023/06/16 00:48:15;;;;;;;3.20;2.90;;;16.00;99.90;;;;;;5053636;28;20171;-68
2023/06/16 00:50:41;;;;;;;3.80;3.20;;;16.00;99.90;;;;;;5053589;28;20460;-67
2023/06/16 00:53:06;;;;;;;5.00;4.20;;;16.00;99.90;;;;;;5053936;28;20178;-67
2023/06/16 00:55:32;;;;;;;2.87;2.67;;;15.90;99.90;;;;;;5053727;28;20199;-67
2023/06/16 00:57:58;;;;;;;3.57;3.27;;;15.90;99.90;;;;;;5053879;28;20524;-68
2023/06/16 01:00:23;;;;;;;4.60;3.00;;;15.90;99.90;;;;;;5053403;28;20542;-69
2023/06/16 01:02:50;;;;;;;3.90;3.30;;;15.90;99.90;;;;;;5053695;28;20404;-67
2023/06/16 01:05:17;;;;;;;4.03;3.73;;;15.90;99.90;;;;;;5053694;28;20198;-67
2023/06/16 01:07:59;;;;;;;5.60;3.33;;;15.80;99.90;;;;;;5053637;28;20409;-67
2023/06/16 01:10:49;;;;;;;5.40;3.70;;;15.80;99.90;;;;;;5053193;28;20408;-67
2023/06/16 01:13:35;;;;;;;3.40;3.00;;;15.80;99.90;;;;;;5053624;28;20551;-66
2023/06/16 01:16:03;;;;;;;3.63;3.33;;;15.80;99.90;;;;;;5053453;28;20741;-67
2023/06/16 01:18:31;;;;;;;3.30;2.47;;;15.70;99.90;;;;;;5053429;28;20543;-68
2023/06/16 01:21:31;;;;;;;3.43;3.03;;;15.70;99.90;;;;;;5052966;28;20851;-70
2023/06/16 01:24:02;;;;;;;3.03;2.70;;;15.70;99.90;;;;;;5053374;28;20443;-69
2023/06/16 01:26:34;;;;;;;3.33;3.03;;;15.60;99.90;;;;;;5053260;28;20551;-68
2023/06/16 01:29:02;;;;;;;3.50;3.20;;;15.60;99.90;;;;;;5053348;28;20611;-68
2023/06/16 01:31:31;;;;;;;4.03;3.40;;;15.60;99.90;;;;;;5034604;28;20453;-68
2023/06/16 01:33:59;;;;;;;4.50;3.30;;;15.60;99.90;;;;;;5034278;28;20450;-69
2023/06/16 01:36:25;;;;;;;7.37;3.10;;;15.50;99.90;;;;;;5052821;28;20480;-68
2023/06/16 01:38:52;;;;;;;4.50;3.60;;;15.50;99.90;;;;;;5053003;28;20496;-67
2023/06/16 01:41:19;;;;;;;6.20;4.63;;;15.50;99.90;;;;;;5052970;28;20943;-69
2023/06/16 01:43:47;;;;;;;12.77;4.43;;;15.50;99.90;;;;;;5052893;28;20459;-69
2023/06/16 01:46:14;;;;;;;4.13;3.07;;;15.40;99.90;;;;;;5052850;28;20899;-68
2023/06/16 01:48:40;;;;;;;3.97;3.30;;;15.40;99.90;;;;;;5034972;28;20405;-68
2023/06/16 01:51:05;;;;;;;3.87;3.47;;;15.40;99.90;;;;;;5052409;28;20417;-67
2023/06/16 01:53:31;;;;;;;3.00;2.60;;;15.40;99.90;;;;;;5052703;28;20175;-68
2023/06/16 01:55:56;;;;;;;3.87;2.93;;;15.40;99.90;;;;;;5052783;28;20163;-67
2023/06/16 01:58:24;;;;;;;3.90;3.20;;;15.40;99.90;;;;;;5052232;28;20163;-67
2023/06/16 02:01:16;;;;;;;4.30;3.50;;;15.30;99.90;;;;;;5052082;28;20191;-68
2023/06/16 02:03:52;;;;;;;4.37;3.50;;;15.30;99.90;;;;;;5052439;28;20413;-67
2023/06/16 02:06:23;;;;;;;4.40;2.80;;;15.30;99.90;;;;;;5052577;28;20544;-67
2023/06/16 02:08:52;;;;;;;4.70;3.07;;;15.20;99.90;;;;;;5052472;28;20512;-68
2023/06/16 02:11:18;;;;;;;2.93;2.73;;;15.20;99.90;;;;;;5052146;28;20427;-68
2023/06/16 02:13:45;;;;;;;3.93;3.07;;;15.20;99.90;;;;;;5052249;28;20493;-67
2023/06/16 02:16:11;;;;;;;3.53;3.23;;;15.20;99.90;;;;;;5052365;28;20492;-67
2023/06/16 02:18:37;;;;;;;5.40;3.73;;;15.20;99.90;;;;;;5052284;28;20470;-67
2023/06/16 02:21:02;;;;;;;4.53;3.10;;;15.20;99.90;;;;;;5051956;28;20927;-66
2023/06/16 02:23:28;;;;;;;6.40;3.60;;;15.10;99.90;;;;;;5052227;28;20531;-68
2023/06/16 02:25:53;;;;;;;4.87;2.90;;;15.10;99.90;;;;;;5052279;28;20170;-69
2023/06/16 02:28:19;;;;;;;7.60;3.20;;;15.10;99.90;;;;;;5052122;28;20253;-67
2023/06/16 02:30:45;;;;;;;4.93;3.20;;;15.10;99.90;;;;;;5051848;28;20729;-67
2023/06/16 02:33:12;;;;;;;5.07;3.67;;;15.10;99.90;;;;;;5052102;28;20171;-68
2023/06/16 02:35:38;;;;;;;10.97;7.27;;;15.10;99.90;;;;;;5051472;28;20546;-68
2023/06/16 02:38:04;;;;;;;7.90;5.50;;;15.00;99.90;;;;;;5051875;28;20508;-68
2023/06/16 02:40:30;;;;;;;6.60;4.87;;;15.00;99.90;;;;;;5051725;28;20509;-69
2023/06/16 02:42:55;;;;;;;5.57;3.63;;;15.00;99.90;;;;;;5051796;28;20409;-67
2023/06/16 02:45:21;;;;;;;5.20;4.03;;;15.00;99.90;;;;;;5034122;28;20678;-67
2023/06/16 02:47:46;;;;;;;8.77;3.90;;;15.00;99.90;;;;;;5051956;28;20189;-69
2023/06/16 02:50:12;;;;;;;3.70;3.40;;;15.00;99.90;;;;;;5051398;28;20687;-69
2023/06/16 02:52:41;;;;;;;3.30;3.00;;;15.00;99.90;;;;;;5051901;28;20625;-69
2023/06/16 02:55:08;;;;;;;4.30;3.03;;;15.00;99.90;;;;;;5051771;28;20214;-67
2023/06/16 02:57:34;;;;;;;3.30;3.00;;;15.00;99.90;;;;;;5051794;28;20451;-66
2023/06/16 02:59:59;;;;;;;3.87;3.50;;;14.90;99.90;;;;;;5051504;28;20401;-66
2023/06/16 03:02:25;;;;;;;3.80;3.27;;;14.90;99.90;;;;;;5051797;28;20645;-68
2023/06/16 03:04:50;;;;;;;6.47;3.20;;;14.90;99.90;;;;;;5051629;28;20548;-68
2023/06/16 03:07:17;;;;;;;4.63;3.93;;;14.90;99.90;;;;;;5051771;28;20537;-68
2023/06/16 03:09:43;;;;;;;5.50;3.40;;;14.90;99.90;;;;;;5051506;28;20170;-67
2023/06/16 03:12:09;;;;;;;6.40;4.20;;;14.90;99.90;;;;;;5055415;28;20780;-67
2023/06/16 03:14:35;;;;;;;5.00;3.97;;;14.90;99.90;;;;;;5055588;28;20810;-67
2023/06/16 03:17:01;;;;;;;3.67;3.13;;;14.90;99.90;;;;;;5055750;28;20405;-68
2023/06/16 03:19:27;;;;;;;3.80;3.00;;;14.90;99.90;;;;;;5055633;28;20397;-68
2023/06/16 03:21:53;;;;;;;6.47;3.40;;;14.90;99.90;;;;;;5055306;28;20429;-67
2023/06/16 03:24:19;;;;;;;4.73;3.17;;;14.80;99.90;;;;;;5055614;28;20171;-68
2023/06/16 03:26:45;;;;;;;4.07;3.33;;;14.90;99.90;;;;;;5055513;28;20415;-67
2023/06/16 03:29:14;;;;;;;3.43;3.13;;;14.80;99.90;;;;;;5055234;28;20532;-68
2023/06/16 03:31:40;;;;;;;4.23;3.00;;;14.90;99.90;;;;;;5055121;28;20798;-67
2023/06/16 03:34:06;;;;;;;4.60;2.80;;;14.90;99.90;;;;;;5055291;28;20519;-67
2023/06/16 03:36:39;;;;;;;5.00;3.27;;;14.80;99.90;;;;;;5055487;28;20440;-69
2023/06/16 03:39:05;;;;;;;4.10;3.33;;;14.80;99.90;;;;;;5055344;28;20167;-66
2023/06/16 03:41:34;;;;;;;3.80;2.90;;;14.90;99.90;;;;;;5054842;28;20413;-67
2023/06/16 03:44:00;;;;;;;3.47;2.53;;;14.90;99.90;;;;;;5055393;28;20493;-67
2023/06/16 03:46:29;;;;;;;3.00;2.70;;;14.90;99.90;;;;;;5055166;28;20835;-68
2023/06/16 03:48:55;;;;;;;3.73;3.23;;;15.00;99.90;;;;;;5055138;28;20532;-67
2023/06/16 03:51:20;;;;;;;3.60;3.00;;;15.00;99.90;;;;;;5054708;28;20428;-67
2023/06/16 03:53:46;;;;;;;4.83;3.70;;;15.00;99.90;;;;;;5054976;28;20532;-67
2023/06/16 03:56:12;;;;;;;4.57;2.80;;;15.10;99.90;;;;;;5054958;28;20171;-67
2023/06/16 03:58:37;;;;;;;3.30;3.00;;;15.10;99.90;;;;;;5055002;28;20163;-67
2023/06/16 04:01:03;;;;;;;7.73;2.90;;;15.20;99.90;;;;;;5054543;28;20182;-68
2023/06/16 04:03:29;;;;;;;3.20;2.90;;;15.20;99.90;;;;;;5054749;28;20186;-68
2023/06/16 04:05:54;;;;;;;5.20;3.10;;;15.20;99.90;;;;;;5036861;28;20776;-68
2023/06/16 04:08:20;;;;;;;6.70;3.93;;;15.30;99.90;;;;;;5054809;28;20167;-67
2023/06/16 04:10:46;;;;;;;6.67;3.93;;;15.30;99.90;;;;;;5054283;28;20552;-68
2023/06/16 04:13:12;;;;;;;4.83;4.00;;;15.40;99.90;;;;;;5054323;28;20254;-67
2023/06/16 04:15:38;;;;;;;4.83;4.33;;;15.40;99.90;;;;;;5054442;28;20199;-67
2023/06/16 04:18:03;;;;;;;5.30;3.93;;;15.50;99.90;;;;;;5056163;28;20485;-67
2023/06/16 04:20:29;;;;;;;4.37;3.20;;;15.50;99.90;;;;;;5054900;28;20167;-67
2023/06/16 04:22:55;;;;;;;4.30;3.50;;;15.60;99.90;;;;;;5054825;28;20169;-66
2023/06/16 04:25:21;;;;;;;3.43;2.93;;;15.60;99.90;;;;;;5056048;28;20178;-66
2023/06/16 04:27:49;;;;;;;4.50;3.27;;;15.70;99.90;;;;;;5039106;28;20301;-65
2023/06/16 04:30:22;;;;;;;3.90;3.40;;;15.70;99.90;;;;;;5056998;28;20412;-66
2023/06/16 04:32:49;;;;;;;3.00;2.20;;;15.80;99.90;;;;;;5056684;28;20439;-67
2023/06/16 04:35:15;;;;;;;5.53;4.43;;;15.80;99.90;;;;;;5056478;28;20444;-67
2023/06/16 04:37:41;;;;;;;4.63;3.90;;;15.90;99.90;;;;;;5056353;28;20409;-66
2023/06/16 04:40:08;;;;;;;4.77;3.60;;;16.00;99.90;;;;;;5056450;28;20455;-66
2023/06/16 04:42:34;;;;;;;4.37;3.97;;;16.00;99.90;;;;;;5055917;28;20843;-66
2023/06/16 04:45:00;;;;;;;4.37;3.40;;;16.20;99.90;;;;;;5056570;28;20413;-67
2023/06/16 04:47:25;;;;;;;6.63;4.10;;;16.20;99.90;;;;;;5056754;28;20405;-66
2023/06/16 04:49:51;;;;;;;4.43;3.80;;;16.30;99.90;;;;;;5055514;28;20410;-67
2023/06/16 04:52:16;;;;;;;5.50;4.07;;;16.40;99.90;;;;;;5053920;28;20274;-66
2023/06/16 04:54:42;;;;;;;3.10;2.80;;;16.50;99.90;;;;;;5055253;28;20233;-66
2023/06/16 04:57:08;;;;;;;3.43;2.60;;;16.60;99.90;;;;;;5037911;28;20221;-66
2023/06/16 04:59:33;;;;;;;6.33;3.27;;;16.60;99.90;;;;;;5039523;28;20170;-66
2023/06/16 05:02:00;;;;;;;4.10;2.90;;;16.80;99.90;;;;;;5056823;28;20183;-66
2023/06/16 05:04:25;;;;;;;3.40;3.10;;;16.90;99.90;;;;;;5055311;28;20756;-68
2023/06/16 05:06:51;;;;;;;5.60;4.80;;;17.00;99.90;;;;;;5053889;28;20440;-66
2023/06/16 05:09:16;;;;;;;6.10;4.80;;;17.10;99.90;;;;;;5054862;28;20554;-66
2023/06/16 05:11:42;;;;;;;8.23;5.97;;;17.20;99.90;;;;;;5054624;28;20191;-66
2023/06/16 05:14:08;;;;;;;8.90;5.53;;;17.40;99.90;;;;;;5054792;28;20680;-66
2023/06/16 05:16:33;;;;;;;8.13;5.40;;;17.50;99.90;;;;;;5054667;28;20653;-67
2023/06/16 05:18:59;;;;;;;7.67;5.00;;;17.70;99.90;;;;;;5053935;28;20436;-68
2023/06/16 05:21:25;;;;;;;5.67;4.80;;;17.80;99.90;;;;;;5053098;28;20182;-67
2023/06/16 05:23:54;;;;;;;4.50;4.10;;;18.00;99.90;;;;;;5053351;28;20174;-67
2023/06/16 05:26:21;;;;;;;3.87;3.47;;;18.10;99.90;;;;;;5053559;28;20167;-67
2023/06/16 05:28:46;;;;;;;3.50;3.20;;;18.30;99.90;;;;;;5055565;28;20421;-67
2023/06/16 05:31:13;;;;;;;5.57;3.23;;;18.40;99.90;;;;;;5055928;28;20421;-67
2023/06/16 05:33:38;;;;;;;3.97;3.40;;;18.60;99.90;;;;;;5055136;28;20170;-68
2023/06/16 05:36:04;;;;;;;4.60;3.70;;;18.80;99.90;;;;;;5054398;28;20485;-67
2023/06/16 05:38:29;;;;;;;3.80;3.10;;;18.90;99.90;;;;;;5054905;28;20261;-66
2023/06/16 05:40:55;;;;;;;4.40;3.50;;;19.00;99.90;;;;;;5054855;28;20209;-67
2023/06/16 05:43:20;;;;;;;4.03;3.63;;;19.10;99.90;;;;;;5053820;28;20216;-68
2023/06/16 05:45:46;;;;;;;4.00;3.63;;;19.20;99.90;;;;;;5052820;28;20246;-67
2023/06/16 05:48:12;;;;;;;3.77;3.40;;;19.40;99.90;;;;;;5052846;28;20174;-67
2023/06/16 05:50:37;;;;;;;3.53;2.63;;;19.50;99.90;;;;;;5054972;28;20191;-66
2023/06/16 05:53:04;;;;;;;4.07;2.77;;;19.70;99.90;;;;;;5054308;28;20167;-67
2023/06/16 05:55:30;;;;;;;2.50;2.30;;;19.90;99.90;;;;;;5052984;28;20198;-67
2023/06/16 05:57:55;;;;;;;5.03;2.87;;;20.10;99.90;;;;;;5052793;28;21030;-68
2023/06/16 06:00:21;;;;;;;3.80;3.40;;;20.30;99.90;;;;;;5052372;28;20641;-68
2023/06/16 06:02:46;;;;;;;4.10;3.00;;;20.70;99.90;;;;;;5052558;28;20645;-68
2023/06/16 06:05:12;;;;;;;4.80;3.10;;;21.30;99.90;;;;;;5052602;28;20248;-70
2023/06/16 06:07:37;;;;;;;5.37;3.33;;;22.10;99.90;;;;;;5052625;28;20229;-69
2023/06/16 06:10:03;;;;;;;3.50;3.20;;;23.10;99.90;;;;;;5052234;28;20175;-69
2023/06/16 06:12:29;;;;;;;4.50;3.40;;;24.30;98.80;;;;;;5034600;28;20194;-66
2023/06/16 06:14:54;;;;;;;3.93;3.60;;;25.50;93.90;;;;;;5052307;28;20191;-66
2023/06/16 06:17:20;;;;;;;3.40;3.10;;;26.70;87.10;;;;;;5052418;28;20219;-67
2023/06/16 06:19:45;;;;;;;3.73;3.33;;;27.90;74.80;;;;;;5052223;28;20167;-66
2023/06/16 06:22:11;;;;;;;3.60;2.90;;;29.00;63.20;;;;;;5051843;28;20285;-68
2023/06/16 06:24:36;;;;;;;3.83;3.33;;;30.00;57.00;;;;;;5052332;28;20174;-68
2023/06/16 06:27:02;;;;;;;3.50;3.20;;;31.00;53.20;;;;;;5052306;28;20550;-68
2023/06/16 06:29:27;;;;;;;4.00;3.60;;;32.00;50.00;;;;;;5052139;28;20175;-67
2023/06/16 06:31:53;;;;;;;4.20;3.07;;;32.60;45.40;;;;;;5051816;28;20308;-67
2023/06/16 06:34:18;;;;;;;4.00;3.60;;;33.40;44.70;;;;;;5053173;28;20718;-66
2023/06/16 06:36:47;;;;;;;3.77;3.47;;;34.00;40.80;;;;;;5054864;28;20643;-67
2023/06/16 06:39:13;;;;;;;5.50;4.40;;;34.40;38.10;;;;;;5054197;28;20163;-66
2023/06/16 06:41:40;;;;;;;3.93;3.57;;;34.90;37.20;;;;;;5054031;28;20424;-68
2023/06/16 06:44:05;;;;;;;3.97;3.57;;;35.20;34.80;;;;;;5054788;28;20598;-67
2023/06/16 06:46:31;;;;;;;5.80;3.80;;;35.60;35.00;;;;;;5054558;28;20440;-67
2023/06/16 06:48:57;;;;;;;4.83;4.20;;;35.70;33.30;;;;;;5051883;28;20246;-68
2023/06/16 06:51:23;;;;;;;3.93;3.53;;;35.80;32.10;;;;;;5051550;28;20592;-68
2023/06/16 06:53:48;;;;;;;4.37;3.60;;;36.40;32.50;;;;;;5051822;28;20416;-68
2023/06/16 06:56:15;;;;;;;3.33;3.13;;;37.00;31.40;;;;;;5051875;28;20171;-68
2023/06/16 06:58:41;;;;;;;5.60;3.90;;;37.30;29.70;;;;;;5051907;28;20163;-68
2023/06/16 07:01:06;;;;;;;3.20;3.00;;;37.50;29.60;;;;;;5051131;28;20453;-68
2023/06/16 07:03:32;;;;;;;3.93;3.53;;;37.90;29.70;;;;;;5051554;28;20617;-69
2023/06/16 07:05:58;;;;;;;3.87;3.47;;;38.40;29.00;;;;;;5051823;28;20163;-68
2023/06/16 07:08:23;;;;;;;3.50;3.20;;;39.00;29.30;;;;;;5051727;28;20167;-68
2023/06/16 07:10:49;;;;;;;4.87;4.47;;;39.70;29.40;;;;;;5051458;28;20240;-67
2023/06/16 07:13:15;;;;;;;4.10;3.80;;;40.30;28.80;;;;;;5052455;28;20634;-71
2023/06/16 07:15:40;;;;;;;3.97;3.60;;;40.50;26.80;;;;;;5054347;28;20273;-68
2023/06/16 07:18:06;;;;;;;3.77;3.47;;;40.90;27.10;;;;;;5054428;28;20448;-67
2023/06/16 07:20:31;;;;;;;4.83;3.50;;;41.30;26.90;;;;;;5053817;28;20265;-67
2023/06/16 07:22:58;;;;;;;6.77;4.03;;;41.80;26.90;;;;;;5054303;28;20246;-68
2023/06/16 07:25:23;;;;;;;3.57;3.27;;;42.30;26.60;;;;;;5054580;28;20194;-67
2023/06/16 07:27:49;;;;;;;3.87;3.57;;;42.90;26.60;;;;;;5053851;28;20375;-67
2023/06/16 07:30:14;;;;;;;3.33;2.97;;;43.50;26.20;;;;;;5053573;28;20250;-67
2023/06/16 07:32:41;;;;;;;4.13;3.70;;;44.00;25.70;;;;;;5054427;28;20222;-69
2023/06/16 07:35:08;;;;;;;3.37;3.17;;;44.40;24.80;;;;;;5054476;28;20927;-66
2023/06/16 07:37:33;;;;;;;4.03;3.60;;;44.80;24.80;;;;;;5053293;28;20171;-68
2023/06/16 07:39:59;;;;;;;3.70;3.40;;;45.20;24.40;;;;;;5052482;28;20401;-67
2023/06/16 07:42:25;;;;;;;3.60;3.40;;;45.60;24.20;;;;;;5051343;28;20187;-67
2023/06/16 07:44:51;;;;;;;3.97;3.67;;;46.00;23.60;;;;;;5052048;28;20233;-67
2023/06/16 07:47:17;;;;;;;4.50;4.20;;;46.20;23.20;;;;;;5052744;28;20175;-67
2023/06/16 07:49:43;;;;;;;3.97;3.67;;;46.60;22.90;;;;;;5051379;28;20414;-67
2023/06/16 07:52:09;;;;;;;2.90;2.70;;;46.90;22.40;;;;;;5050993;28;20684;-67
2023/06/16 07:54:35;;;;;;;3.60;3.30;;;47.20;22.50;;;;;;5051225;28;20599;-69
2023/06/16 07:57:00;;;;;;;3.70;3.47;;;47.50;22.20;;;;;;5033841;28;20413;-68
2023/06/16 07:59:26;;;;;;;4.20;3.70;;;47.90;22.00;;;;;;5054737;28;20182;-69
2023/06/16 08:01:52;;;;;;;4.23;3.83;;;47.90;21.20;;;;;;5055886;28;20551;-69
2023/06/16 08:04:17;;;;;;;3.50;3.20;;;47.80;21.80;;;;;;5056138;28;20399;-68
2023/06/16 08:06:43;;;;;;;4.50;4.20;;;47.80;21.80;;;;;;5055827;28;20194;-69
2023/06/16 08:09:10;;;;;;;4.10;3.70;;;47.80;21.40;;;;;;5054767;28;20686;-68
2023/06/16 08:11:36;;;;;;;3.80;3.50;;;47.80;21.50;;;;;;5054495;28;20195;-68
2023/06/16 08:14:02;;;;;;;3.53;3.33;;;47.90;21.40;;;;;;5054554;28;20427;-68
2023/06/16 08:16:27;;;;;;;3.70;3.43;;;48.00;21.60;;;;;;5055704;28;20617;-68
2023/06/16 08:18:57;;;;;;;3.87;3.57;;;48.10;21.20;;;;;;5054771;28;20376;-67
2023/06/16 08:21:23;;;;;;;3.60;3.30;;;48.40;21.40;;;;;;5054287;28;20178;-67
2023/06/16 08:23:50;;;;;;;3.57;3.27;;;48.70;21.20;;;;;;5054574;28;20401;-67
2023/06/16 08:26:16;;;;;;;3.90;3.60;;;48.90;21.20;;;;;;5054523;28;20182;-70
2023/06/16 08:28:42;;;;;;;4.50;4.10;;;49.30;21.00;;;;;;5054474;28;20433;-69
2023/06/16 08:31:08;;;;;;;3.43;3.23;;;49.50;20.70;;;;;;5054071;28;20190;-67
2023/06/16 08:33:34;;;;;;;4.20;3.90;;;49.80;20.30;;;;;;5054874;28;20381;-68
2023/06/16 08:36:00;;;;;;;4.50;4.17;;;50.00;20.10;;;;;;5054690;28;20191;-69
2023/06/16 08:38:26;;;;;;;6.90;3.27;;;50.10;20.00;;;;;;5037167;28;20894;-68
2023/06/16 08:40:51;;;;;;;3.73;3.43;;;50.20;19.80;;;;;;5054656;28;20198;-68
2023/06/16 08:43:17;;;;;;;4.10;3.80;;;50.40;20.20;;;;;;5054425;28;20246;-68
2023/06/16 08:45:44;;;;;;;4.20;3.97;;;50.70;20.20;;;;;;5054033;28;20163;-67
2023/06/16 08:48:11;;;;;;;4.40;4.10;;;51.00;20.00;;;;;;5053532;28;20603;-68
2023/06/16 08:50:38;;;;;;;4.47;4.13;;;51.20;19.10;;;;;;5053792;28;20998;-69
2023/06/16 08:53:06;;;;;;;5.20;4.80;;;51.40;18.90;;;;;;5053956;28;20405;-68
2023/06/16 08:55:32;;;;;;;4.07;3.73;;;51.60;19.40;;;;;;5053845;28;20441;-69
2023/06/16 08:57:59;;;;;;;4.33;4.03;;;51.80;19.10;;;;;;5053784;28;20393;-67
2023/06/16 09:00:26;;;;;;;3.90;3.60;;;52.10;18.70;;;;;;5053504;28;20402;-69
2023/06/16 09:02:55;;;;;;;4.60;4.20;;;52.40;18.40;;;;;;5053685;28;20402;-68
2023/06/16 09:05:23;;;;;;;4.10;3.90;;;52.70;17.80;;;;;;5054463;28;20430;-69
2023/06/16 09:07:51;;;;;;;4.67;4.37;;;52.80;18.20;;;;;;5054096;28;20425;-69
2023/06/16 09:10:18;;;;;;;4.60;4.30;;;53.10;18.20;;;;;;5053964;28;20397;-68
2023/06/16 09:12:44;;;;;;;4.10;3.90;;;53.30;18.00;;;;;;5053707;28;20768;-69
2023/06/16 09:15:10;;;;;;;4.10;3.90;;;53.40;17.70;;;;;;5053676;28;20449;-71
2023/06/16 09:17:40;;;;;;;5.07;4.50;;;53.50;17.10;;;;;;5053945;28;20218;-69
2023/06/16 09:20:14;;;;;;;4.93;4.53;;;53.50;17.40;;;;;;5053604;28;20402;-69
2023/06/16 09:22:40;;;;;;;4.03;3.80;;;53.70;17.70;;;;;;5053573;28;20839;-68
2023/06/16 09:25:05;;;;;;;4.77;4.37;;;53.80;17.30;;;;;;5053283;28;20429;-67
2023/06/16 09:28:08;;;;;;;4.37;4.07;;;54.00;17.40;;;;;;5053288;28;20237;-67
2023/06/16 09:30:34;;;;;;;4.37;4.00;;;54.30;17.30;;;;;;5029571;28;20217;-69
2023/06/16 09:33:00;;;;;;;11.30;6.00;;;54.60;17.20;;;;;;5053315;28;20484;-70
2023/06/16 09:35:27;;;;;;;4.90;4.53;;;54.90;16.70;;;;;;5053109;28;20563;-69
2023/06/16 09:37:56;;;;;;;8.10;7.40;;;55.00;16.40;;;;;;5053628;28;20637;-69
2023/06/16 09:40:26;;;;;;;5.83;5.33;;;55.20;16.30;;;;;;5053129;28;20488;-70
2023/06/16 09:42:51;;;;;;;6.57;6.03;;;55.20;16.60;;;;;;5053103;28;20476;-69
2023/06/16 09:45:20;;;;;;;7.30;6.60;;;55.30;15.90;;;;;;5052899;28;20846;-69
2023/06/16 09:47:49;;;;;;;4.60;4.30;;;55.40;15.60;;;;;;5052937;28;20212;-68
2023/06/16 09:50:16;;;;;;;4.43;4.20;;;55.60;15.40;;;;;;5052562;28;20401;-69
2023/06/16 09:52:47;;;;;;;5.37;5.07;;;55.70;15.50;;;;;;5052885;28;20470;-69
2023/06/16 09:55:13;;;;;;;5.37;4.50;;;55.80;15.70;;;;;;5053488;28;20453;-65
2023/06/16 09:57:41;;;;;;;4.77;4.47;;;55.80;15.70;;;;;;5057282;28;20408;-66
2023/06/16 10:00:11;;;;;;;4.87;4.57;;;55.80;15.80;;;;;;5056667;28;20405;-65
2023/06/16 10:02:39;;;;;;;4.70;4.40;;;55.80;15.80;;;;;;5055873;28;20405;-66
2023/06/16 10:05:09;;;;;;;5.00;4.60;;;55.90;15.70;;;;;;5056557;28;20436;-63
2023/06/16 10:07:36;;;;;;;4.40;4.10;;;56.00;15.30;;;;;;5054942;28;20488;-68
2023/06/16 10:10:04;;;;;;;4.40;4.20;;;56.10;15.30;;;;;;5052378;28;20415;-69
2023/06/16 10:12:33;;;;;;;3.77;3.53;;;55.90;15.20;;;;;;5053065;28;20771;-68
2023/06/16 10:15:02;;;;;;;4.70;4.40;;;55.80;14.90;;;;;;5053168;28;20456;-69
2023/06/16 10:17:30;;;;;;;3.97;3.77;;;56.30;15.20;;;;;;5053069;28;20905;-68
2023/06/16 10:19:56;;;;;;;4.90;4.60;;;56.80;14.60;;;;;;5052240;28;20416;-69
2023/06/16 10:22:22;;;;;;;5.20;4.80;;;57.10;14.40;;;;;;5052883;28;20819;-68
2023/06/16 10:24:48;;;;;;;6.00;4.33;;;57.50;14.80;;;;;;5053040;28;20222;-69
2023/06/16 10:27:15;;;;;;;5.10;4.80;;;57.80;14.60;;;;;;5053012;28;20843;-69
2023/06/16 10:29:42;;;;;;;4.47;4.27;;;58.20;14.70;;;;;;5034857;28;20655;-69
2023/06/16 10:32:10;;;;;;;4.83;4.53;;;58.50;14.50;;;;;;5052718;28;20417;-68
2023/06/16 10:34:44;;;;;;;5.07;4.87;;;58.80;14.70;;;;;;5053327;28;20986;-69
2023/06/16 10:37:09;;;;;;;5.40;5.10;;;59.20;14.40;;;;;;5053006;28;20942;-66
2023/06/16 10:39:41;;;;;;;5.57;5.30;;;59.40;13.80;;;;;;5052702;28;20519;-66
2023/06/16 10:42:11;;;;;;;5.00;4.70;;;59.40;14.10;;;;;;5052360;28;20193;-67
2023/06/16 10:44:37;;;;;;;6.00;5.60;;;59.50;14.10;;;;;;5052693;28;20401;-67
2023/06/16 10:47:08;;;;;;;5.50;5.30;;;59.70;14.10;;;;;;5034641;28;20440;-67
2023/06/16 10:49:47;;;;;;;5.30;5.10;;;59.90;14.10;;;;;;5052447;28;20720;-67
2023/06/16 10:52:19;;;;;;;6.47;5.83;;;60.30;13.60;;;;;;5051841;28;21100;-67
2023/06/16 10:54:48;;;;;;;5.73;5.43;;;60.00;13.30;;;;;;5051789;28;20444;-68
2023/06/16 10:57:14;;;;;;;5.50;5.20;;;60.30;13.60;;;;;;5051867;28;20401;-68
2023/06/16 11:00:11;;;;;;;6.30;5.80;;;60.20;13.40;;;;;;5051834;28;20393;-67
2023/06/16 11:02:47;;;;;;;6.37;5.97;;;60.00;13.20;;;;;;5051720;28;20444;-68
2023/06/16 11:05:14;;;;;;;4.97;4.77;;;60.10;13.50;;;;;;5051794;28;20439;-68
2023/06/16 11:07:46;;;;;;;5.93;5.53;;;60.20;13.10;;;;;;5051680;28;20408;-68
2023/06/16 11:10:18;;;;;;;5.07;4.77;;;60.00;12.90;;;;;;5051450;28;20413;-68
2023/06/16 11:12:45;;;;;;;6.57;6.17;;;60.00;13.30;;;;;;5051905;28;20459;-68
2023/06/16 11:15:10;;;;;;;4.97;4.67;;;60.10;13.10;;;;;;5051673;28;20950;-67
2023/06/16 11:17:36;;;;;;;5.53;5.27;;;60.10;13.00;;;;;;5051638;28;20400;-67
2023/06/16 11:20:06;;;;;;;5.33;5.10;;;60.00;12.90;;;;;;5051424;28;20195;-68
2023/06/16 11:22:36;;;;;;;5.37;5.13;;;59.90;13.10;;;;;;5051750;28;20583;-67
2023/06/16 11:25:03;;;;;;;5.30;5.00;;;59.20;13.10;;;;;;5033895;28;20514;-67
2023/06/16 11:27:30;;;;;;;4.43;4.10;;;57.80;13.00;;;;;;5053271;28;20436;-67
2023/06/16 11:29:57;;;;;;;4.70;4.40;;;56.40;13.20;;;;;;5053124;28;20981;-67
2023/06/16 11:32:34;;;;;;;4.70;4.40;;;55.80;13.70;;;;;;5056208;28;20482;-67
2023/06/16 11:35:00;;;;;;;5.23;4.83;;;55.60;13.80;;;;;;5057108;28;20506;-67
2023/06/16 11:37:39;;;;;;;4.73;4.43;;;55.60;13.80;;;;;;5056861;28;20412;-67
2023/06/16 11:40:06;;;;;;;4.40;4.10;;;55.30;13.70;;;;;;5055901;28;20926;-67
2023/06/16 11:42:33;;;;;;;4.27;4.07;;;54.90;13.70;;;;;;5056324;28;20424;-67
2023/06/16 11:44:59;;;;;;;4.40;4.00;;;54.70;13.90;;;;;;5056435;28;20417;-67
2023/06/16 11:47:25;;;;;;;4.30;4.00;;;54.50;14.00;;;;;;5057050;28;20405;-67
2023/06/16 11:49:51;;;;;;;4.50;4.20;;;54.40;14.20;;;;;;5056288;28;20232;-67
2023/06/16 11:52:17;;;;;;;4.20;4.00;;;54.40;14.10;;;;;;5038045;28;20430;-67
2023/06/16 11:54:43;;;;;;;5.07;4.77;;;54.30;13.90;;;;;;5056361;28;20452;-67
2023/06/16 11:57:09;;;;;;;4.40;4.10;;;54.50;13.90;;;;;;5056015;28;20431;-67
2023/06/16 11:59:35;;;;;;;3.70;3.40;;;54.70;14.00;;;;;;5055861;28;20170;-67
2023/06/16 12:02:03;;;;;;;4.30;4.07;;;55.00;14.30;;;;;;5056557;28;20421;-67
2023/06/16 12:04:31;;;;;;;4.17;3.97;;;55.40;14.20;;;;;;5056094;28;20421;-67
2023/06/16 12:06:56;;;;;;;4.23;3.97;;;55.80;13.90;;;;;;5056977;28;20401;-67
2023/06/16 12:09:24;;;;;;;4.67;4.37;;;56.50;13.80;;;;;;5055813;28;20408;-66
2023/06/16 12:11:50;;;;;;;4.63;4.33;;;57.20;14.10;;;;;;5055310;28;20197;-66
2023/06/16 12:14:24;;;;;;;4.00;3.80;;;57.80;13.90;;;;;;5055753;28;20448;-67
2023/06/16 12:16:50;;;;;;;4.60;4.30;;;58.20;13.60;;;;;;5055712;28;20772;-67
2023/06/16 12:19:20;;;;;;;5.53;5.07;;;58.40;13.20;;;;;;5056637;28;20413;-67
2023/06/16 12:21:54;;;;;;;5.17;4.83;;;58.50;12.90;;;;;;5055757;28;20425;-67
2023/06/16 12:24:21;;;;;;;5.00;4.70;;;58.30;12.90;;;;;;5055906;28;20448;-67
2023/06/16 12:26:48;;;;;;;5.00;4.60;;;58.20;12.90;;;;;;5055999;28;20424;-67
2023/06/16 12:29:15;;;;;;;4.53;4.27;;;58.20;13.00;;;;;;5056009;28;20397;-67
2023/06/16 12:31:58;;;;;;;4.87;4.50;;;58.00;12.90;;;;;;5055375;28;20452;-67
2023/06/16 12:34:30;;;;;;;5.23;4.93;;;57.90;13.20;;;;;;5055802;28;20401;-67
2023/06/16 12:37:01;;;;;;;5.07;4.77;;;57.70;13.10;;;;;;5055660;28;20437;-67
2023/06/16 12:39:27;;;;;;;4.57;4.37;;;57.60;12.90;;;;;;5055911;28;20428;-67
2023/06/16 12:42:06;;;;;;;5.17;4.77;;;57.30;12.80;;;;;;5055586;28;20425;-67
2023/06/16 12:44:53;;;;;;;4.93;4.60;;;57.20;13.10;;;;;;5054817;28;20190;-67
2023/06/16 12:47:22;;;;;;;4.47;4.17;;;57.10;12.80;;;;;;5055709;28;20397;-67